sensor_id;sensor_type;location;lat;lon;timestamp;P1;durP1;ratioP1;P2;durP2;ratioP2
46391;SDS011;32098;49.448;7.904;2022-10-20T00:02:22;17.17;;;10.93;;
46391;SDS011;32098;49.448;7.904;2022-10-20T00:04:48;14.10;;;10.53;;
46391;SDS011;32098;49.448;7.904;2022-10-20T00:07:15;15.83;;;11.37;;
46391;SDS011;32098;49.448;7.904;2022-10-20T00:09:41;16.00;;;11.23;;
46391;SDS011;32098;49.448;7.904;2022-10-20T00:12:11;16.57;;;11.20;;
46391;SDS011;32098;49.448;7.904;2022-10-20T00:14:37;14.67;;;10.63;;
46391;SDS011;32098;49.448;7.904;2022-10-20T00:17:04;15.67;;;10.30;;
46391;SDS011;32098;49.448;7.904;2022-10-20T00:19:31;15.10;;;11.00;;
46391;SDS011;32098;49.448;7.904;2022-10-20T00:21:58;14.20;;;10.60;;
46391;SDS011;32098;49.448;7.904;2022-10-20T00:24:25;14.43;;;10.50;;
46391;SDS011;32098;49.448;7.904;2022-10-20T00:26:53;14.80;;;11.50;;
46391;SDS011;32098;49.448;7.904;2022-10-20T00:29:20;16.67;;;10.60;;
46391;SDS011;32098;49.448;7.904;2022-10-20T00:31:47;16.83;;;10.13;;
46391;SDS011;32098;49.448;7.904;2022-10-20T00:36:44;15.23;;;10.33;;
46391;SDS011;32098;49.448;7.904;2022-10-20T00:39:16;14.40;;;10.07;;
46391;SDS011;32098;49.448;7.904;2022-10-20T00:41:43;17.53;;;10.53;;
46391;SDS011;32098;49.448;7.904;2022-10-20T00:47:33;17.37;;;10.80;;
46391;SDS011;32098;49.448;7.904;2022-10-20T00:50:06;16.87;;;11.57;;
46391;SDS011;32098;49.448;7.904;2022-10-20T00:52:38;14.50;;;10.67;;
46391;SDS011;32098;49.448;7.904;2022-10-20T00:55:07;17.23;;;11.30;;
46391;SDS011;32098;49.448;7.904;2022-10-20T00:57:37;15.40;;;10.17;;
46391;SDS011;32098;49.448;7.904;2022-10-20T01:00:05;17.60;;;11.77;;
46391;SDS011;32098;49.448;7.904;2022-10-20T01:02:36;16.70;;;11.67;;
46391;SDS011;32098;49.448;7.904;2022-10-20T01:05:03;21.80;;;11.47;;
46391;SDS011;32098;49.448;7.904;2022-10-20T01:07:30;17.47;;;11.20;;
46391;SDS011;32098;49.448;7.904;2022-10-20T01:09:57;20.53;;;11.50;;
46391;SDS011;32098;49.448;7.904;2022-10-20T01:12:26;17.10;;;11.83;;
46391;SDS011;32098;49.448;7.904;2022-10-20T01:18:03;19.20;;;11.67;;
46391;SDS011;32098;49.448;7.904;2022-10-20T01:23:47;17.30;;;11.30;;
46391;SDS011;32098;49.448;7.904;2022-10-20T01:29:35;16.70;;;10.27;;
46391;SDS011;32098;49.448;7.904;2022-10-20T01:42:54;15.80;;;10.13;;
46391;SDS011;32098;49.448;7.904;2022-10-20T01:45:25;16.77;;;10.10;;
46391;SDS011;32098;49.448;7.904;2022-10-20T01:47:55;14.80;;;10.47;;
46391;SDS011;32098;49.448;7.904;2022-10-20T01:50:24;15.70;;;10.47;;
46391;SDS011;32098;49.448;7.904;2022-10-20T01:52:55;13.50;;;9.67;;
46391;SDS011;32098;49.448;7.904;2022-10-20T01:55:24;14.83;;;10.33;;
46391;SDS011;32098;49.448;7.904;2022-10-20T02:00:52;15.83;;;10.57;;
46391;SDS011;32098;49.448;7.904;2022-10-20T02:08:57;17.20;;;10.87;;
46391;SDS011;32098;49.448;7.904;2022-10-20T02:11:30;16.43;;;10.03;;
46391;SDS011;32098;49.448;7.904;2022-10-20T02:14:06;14.77;;;10.10;;
46391;SDS011;32098;49.448;7.904;2022-10-20T02:16:39;17.77;;;10.53;;
46391;SDS011;32098;49.448;7.904;2022-10-20T02:19:12;15.13;;;10.50;;
46391;SDS011;32098;49.448;7.904;2022-10-20T02:21:42;15.80;;;10.93;;
46391;SDS011;32098;49.448;7.904;2022-10-20T02:24:09;15.93;;;10.63;;
46391;SDS011;32098;49.448;7.904;2022-10-20T02:26:41;14.73;;;10.47;;
46391;SDS011;32098;49.448;7.904;2022-10-20T02:29:11;17.60;;;10.93;;
46391;SDS011;32098;49.448;7.904;2022-10-20T02:31:41;16.17;;;10.77;;
46391;SDS011;32098;49.448;7.904;2022-10-20T02:34:10;15.57;;;9.87;;
46391;SDS011;32098;49.448;7.904;2022-10-20T02:36:38;14.67;;;10.60;;
46391;SDS011;32098;49.448;7.904;2022-10-20T02:39:08;15.03;;;10.40;;
46391;SDS011;32098;49.448;7.904;2022-10-20T02:41:35;17.67;;;10.50;;
46391;SDS011;32098;49.448;7.904;2022-10-20T02:44:02;18.47;;;10.30;;
46391;SDS011;32098;49.448;7.904;2022-10-20T02:46:29;16.03;;;10.70;;
46391;SDS011;32098;49.448;7.904;2022-10-20T02:48:56;13.53;;;10.17;;
46391;SDS011;32098;49.448;7.904;2022-10-20T02:51:22;14.67;;;9.73;;
46391;SDS011;32098;49.448;7.904;2022-10-20T02:53:49;14.53;;;10.37;;
46391;SDS011;32098;49.448;7.904;2022-10-20T02:56:15;15.77;;;10.37;;
46391;SDS011;32098;49.448;7.904;2022-10-20T02:58:42;15.27;;;10.80;;
46391;SDS011;32098;49.448;7.904;2022-10-20T03:01:09;15.17;;;10.87;;
46391;SDS011;32098;49.448;7.904;2022-10-20T03:03:36;15.37;;;10.80;;
46391;SDS011;32098;49.448;7.904;2022-10-20T03:06:08;13.93;;;10.97;;
46391;SDS011;32098;49.448;7.904;2022-10-20T03:08:39;15.37;;;11.03;;
46391;SDS011;32098;49.448;7.904;2022-10-20T03:11:08;14.33;;;10.40;;
46391;SDS011;32098;49.448;7.904;2022-10-20T03:13:41;15.77;;;10.37;;
46391;SDS011;32098;49.448;7.904;2022-10-20T03:16:09;15.47;;;10.93;;
46391;SDS011;32098;49.448;7.904;2022-10-20T03:18:36;17.37;;;10.70;;
46391;SDS011;32098;49.448;7.904;2022-10-20T03:21:02;19.43;;;11.03;;
46391;SDS011;32098;49.448;7.904;2022-10-20T03:23:29;16.93;;;10.77;;
46391;SDS011;32098;49.448;7.904;2022-10-20T03:26:02;15.40;;;11.47;;
46391;SDS011;32098;49.448;7.904;2022-10-20T03:28:32;17.47;;;11.30;;
46391;SDS011;32098;49.448;7.904;2022-10-20T03:30:59;16.17;;;10.93;;
46391;SDS011;32098;49.448;7.904;2022-10-20T03:33:26;16.67;;;10.40;;
46391;SDS011;32098;49.448;7.904;2022-10-20T03:35:52;16.57;;;11.37;;
46391;SDS011;32098;49.448;7.904;2022-10-20T03:38:21;16.20;;;10.70;;
46391;SDS011;32098;49.448;7.904;2022-10-20T03:40:48;14.43;;;10.57;;
46391;SDS011;32098;49.448;7.904;2022-10-20T03:43:15;15.23;;;11.07;;
46391;SDS011;32098;49.448;7.904;2022-10-20T03:45:41;17.13;;;11.53;;
46391;SDS011;32098;49.448;7.904;2022-10-20T03:48:13;14.93;;;11.10;;
46391;SDS011;32098;49.448;7.904;2022-10-20T03:50:41;14.67;;;10.70;;
46391;SDS011;32098;49.448;7.904;2022-10-20T03:53:11;15.47;;;10.53;;
46391;SDS011;32098;49.448;7.904;2022-10-20T03:55:41;15.07;;;9.93;;
46391;SDS011;32098;49.448;7.904;2022-10-20T03:58:08;17.93;;;10.77;;
46391;SDS011;32098;49.448;7.904;2022-10-20T04:00:36;22.37;;;11.33;;
46391;SDS011;32098;49.448;7.904;2022-10-20T04:03:03;16.27;;;11.00;;
46391;SDS011;32098;49.448;7.904;2022-10-20T04:05:29;15.93;;;10.97;;
46391;SDS011;32098;49.448;7.904;2022-10-20T04:07:57;16.10;;;11.07;;
46391;SDS011;32098;49.448;7.904;2022-10-20T04:10:25;16.70;;;10.50;;
46391;SDS011;32098;49.448;7.904;2022-10-20T04:12:51;15.53;;;11.50;;
46391;SDS011;32098;49.448;7.904;2022-10-20T04:15:18;16.13;;;11.60;;
46391;SDS011;32098;49.448;7.904;2022-10-20T04:17:45;16.67;;;10.93;;
46391;SDS011;32098;49.448;7.904;2022-10-20T04:20:12;17.67;;;10.93;;
46391;SDS011;32098;49.448;7.904;2022-10-20T04:22:39;16.10;;;10.67;;
46391;SDS011;32098;49.448;7.904;2022-10-20T04:25:06;15.43;;;10.50;;
46391;SDS011;32098;49.448;7.904;2022-10-20T04:27:33;15.50;;;10.43;;
46391;SDS011;32098;49.448;7.904;2022-10-20T04:30:00;17.17;;;10.67;;
46391;SDS011;32098;49.448;7.904;2022-10-20T04:32:29;13.50;;;9.60;;
46391;SDS011;32098;49.448;7.904;2022-10-20T04:34:55;15.37;;;11.00;;
46391;SDS011;32098;49.448;7.904;2022-10-20T04:37:22;14.00;;;9.60;;
46391;SDS011;32098;49.448;7.904;2022-10-20T04:39:51;14.40;;;10.23;;
46391;SDS011;32098;49.448;7.904;2022-10-20T04:42:18;14.53;;;10.00;;
46391;SDS011;32098;49.448;7.904;2022-10-20T04:44:45;15.73;;;10.90;;
46391;SDS011;32098;49.448;7.904;2022-10-20T04:47:13;16.73;;;10.30;;
46391;SDS011;32098;49.448;7.904;2022-10-20T04:49:40;15.93;;;11.27;;
46391;SDS011;32098;49.448;7.904;2022-10-20T04:52:06;17.47;;;11.30;;
46391;SDS011;32098;49.448;7.904;2022-10-20T04:54:34;16.50;;;10.20;;
46391;SDS011;32098;49.448;7.904;2022-10-20T04:57:01;17.90;;;11.23;;
46391;SDS011;32098;49.448;7.904;2022-10-20T04:59:29;16.07;;;11.03;;
46391;SDS011;32098;49.448;7.904;2022-10-20T05:01:56;15.07;;;10.90;;
46391;SDS011;32098;49.448;7.904;2022-10-20T05:04:22;15.07;;;10.83;;
46391;SDS011;32098;49.448;7.904;2022-10-20T05:06:50;17.73;;;11.30;;
46391;SDS011;32098;49.448;7.904;2022-10-20T05:09:18;14.23;;;10.87;;
46391;SDS011;32098;49.448;7.904;2022-10-20T05:11:45;18.87;;;11.00;;
46391;SDS011;32098;49.448;7.904;2022-10-20T05:14:12;18.03;;;11.53;;
46391;SDS011;32098;49.448;7.904;2022-10-20T05:16:39;15.57;;;10.57;;
46391;SDS011;32098;49.448;7.904;2022-10-20T05:19:05;17.60;;;11.10;;
46391;SDS011;32098;49.448;7.904;2022-10-20T05:21:34;16.87;;;11.20;;
46391;SDS011;32098;49.448;7.904;2022-10-20T05:24:02;16.80;;;11.07;;
46391;SDS011;32098;49.448;7.904;2022-10-20T05:26:32;18.97;;;12.30;;
46391;SDS011;32098;49.448;7.904;2022-10-20T05:29:05;19.33;;;12.03;;
46391;SDS011;32098;49.448;7.904;2022-10-20T05:31:37;18.73;;;12.83;;
46391;SDS011;32098;49.448;7.904;2022-10-20T05:34:06;15.97;;;11.03;;
46391;SDS011;32098;49.448;7.904;2022-10-20T05:36:34;16.33;;;11.20;;
46391;SDS011;32098;49.448;7.904;2022-10-20T05:39:02;17.40;;;11.90;;
46391;SDS011;32098;49.448;7.904;2022-10-20T05:41:30;16.70;;;10.90;;
46391;SDS011;32098;49.448;7.904;2022-10-20T05:44:04;15.70;;;11.40;;
46391;SDS011;32098;49.448;7.904;2022-10-20T05:46:35;15.20;;;12.00;;
46391;SDS011;32098;49.448;7.904;2022-10-20T05:49:14;18.37;;;12.07;;
46391;SDS011;32098;49.448;7.904;2022-10-20T05:51:44;16.97;;;11.80;;
46391;SDS011;32098;49.448;7.904;2022-10-20T05:54:12;18.63;;;11.73;;
46391;SDS011;32098;49.448;7.904;2022-10-20T05:56:39;18.00;;;12.30;;
46391;SDS011;32098;49.448;7.904;2022-10-20T05:59:06;16.70;;;11.60;;
46391;SDS011;32098;49.448;7.904;2022-10-20T06:01:33;21.90;;;12.47;;
46391;SDS011;32098;49.448;7.904;2022-10-20T06:04:16;15.90;;;11.17;;
46391;SDS011;32098;49.448;7.904;2022-10-20T06:06:51;17.70;;;12.83;;
46391;SDS011;32098;49.448;7.904;2022-10-20T06:09:19;15.90;;;12.20;;
46391;SDS011;32098;49.448;7.904;2022-10-20T06:12:10;15.70;;;11.80;;
46391;SDS011;32098;49.448;7.904;2022-10-20T06:14:36;20.73;;;11.83;;
46391;SDS011;32098;49.448;7.904;2022-10-20T06:17:03;19.17;;;12.40;;
46391;SDS011;32098;49.448;7.904;2022-10-20T06:19:29;17.23;;;11.67;;
46391;SDS011;32098;49.448;7.904;2022-10-20T06:21:56;18.30;;;11.80;;
46391;SDS011;32098;49.448;7.904;2022-10-20T06:24:31;18.57;;;11.83;;
46391;SDS011;32098;49.448;7.904;2022-10-20T06:26:58;17.97;;;12.97;;
46391;SDS011;32098;49.448;7.904;2022-10-20T06:29:25;19.97;;;13.30;;
46391;SDS011;32098;49.448;7.904;2022-10-20T06:31:54;19.60;;;11.70;;
46391;SDS011;32098;49.448;7.904;2022-10-20T06:34:24;22.53;;;12.23;;
46391;SDS011;32098;49.448;7.904;2022-10-20T06:36:51;16.53;;;11.83;;
46391;SDS011;32098;49.448;7.904;2022-10-20T06:39:22;17.27;;;11.87;;
46391;SDS011;32098;49.448;7.904;2022-10-20T06:41:50;16.40;;;10.87;;
46391;SDS011;32098;49.448;7.904;2022-10-20T06:44:20;15.97;;;11.50;;
46391;SDS011;32098;49.448;7.904;2022-10-20T06:46:48;15.77;;;9.93;;
46391;SDS011;32098;49.448;7.904;2022-10-20T06:49:18;17.50;;;12.77;;
46391;SDS011;32098;49.448;7.904;2022-10-20T06:51:45;15.17;;;11.23;;
46391;SDS011;32098;49.448;7.904;2022-10-20T06:54:12;14.10;;;10.77;;
46391;SDS011;32098;49.448;7.904;2022-10-20T06:56:39;16.20;;;10.77;;
46391;SDS011;32098;49.448;7.904;2022-10-20T06:59:06;15.20;;;9.97;;
46391;SDS011;32098;49.448;7.904;2022-10-20T07:01:33;15.70;;;10.73;;
46391;SDS011;32098;49.448;7.904;2022-10-20T07:04:02;14.10;;;11.30;;
46391;SDS011;32098;49.448;7.904;2022-10-20T07:06:37;17.67;;;10.97;;
46391;SDS011;32098;49.448;7.904;2022-10-20T07:09:05;16.10;;;11.47;;
46391;SDS011;32098;49.448;7.904;2022-10-20T07:11:34;16.33;;;11.73;;
46391;SDS011;32098;49.448;7.904;2022-10-20T07:14:02;15.23;;;11.20;;
46391;SDS011;32098;49.448;7.904;2022-10-20T07:16:31;17.83;;;11.27;;
46391;SDS011;32098;49.448;7.904;2022-10-20T07:18:59;18.53;;;11.60;;
46391;SDS011;32098;49.448;7.904;2022-10-20T07:21:27;15.93;;;10.97;;
46391;SDS011;32098;49.448;7.904;2022-10-20T07:24:03;15.73;;;10.50;;
46391;SDS011;32098;49.448;7.904;2022-10-20T07:26:32;14.30;;;10.33;;
46391;SDS011;32098;49.448;7.904;2022-10-20T07:29:00;13.87;;;10.40;;
46391;SDS011;32098;49.448;7.904;2022-10-20T07:31:34;15.33;;;11.50;;
46391;SDS011;32098;49.448;7.904;2022-10-20T07:34:03;16.47;;;11.20;;
46391;SDS011;32098;49.448;7.904;2022-10-20T07:36:49;16.57;;;11.40;;
46391;SDS011;32098;49.448;7.904;2022-10-20T07:39:17;16.87;;;10.93;;
46391;SDS011;32098;49.448;7.904;2022-10-20T07:41:44;17.17;;;11.23;;
46391;SDS011;32098;49.448;7.904;2022-10-20T07:44:13;20.03;;;11.67;;
46391;SDS011;32098;49.448;7.904;2022-10-20T07:46:40;16.37;;;11.00;;
46391;SDS011;32098;49.448;7.904;2022-10-20T07:49:07;15.43;;;11.17;;
46391;SDS011;32098;49.448;7.904;2022-10-20T07:51:54;16.07;;;11.70;;
46391;SDS011;32098;49.448;7.904;2022-10-20T07:54:21;16.40;;;10.70;;
46391;SDS011;32098;49.448;7.904;2022-10-20T07:56:48;16.37;;;11.00;;
46391;SDS011;32098;49.448;7.904;2022-10-20T07:59:15;16.77;;;11.53;;
46391;SDS011;32098;49.448;7.904;2022-10-20T08:01:41;17.07;;;11.40;;
46391;SDS011;32098;49.448;7.904;2022-10-20T08:04:09;16.73;;;11.13;;
46391;SDS011;32098;49.448;7.904;2022-10-20T08:06:36;15.57;;;11.00;;
46391;SDS011;32098;49.448;7.904;2022-10-20T08:09:04;16.30;;;11.13;;
46391;SDS011;32098;49.448;7.904;2022-10-20T08:11:31;14.80;;;10.87;;
46391;SDS011;32098;49.448;7.904;2022-10-20T08:13:59;15.83;;;10.70;;
46391;SDS011;32098;49.448;7.904;2022-10-20T08:16:26;15.10;;;10.97;;
46391;SDS011;32098;49.448;7.904;2022-10-20T08:18:53;16.23;;;11.07;;
46391;SDS011;32098;49.448;7.904;2022-10-20T08:21:34;14.03;;;10.47;;
46391;SDS011;32098;49.448;7.904;2022-10-20T08:24:00;13.40;;;10.30;;
46391;SDS011;32098;49.448;7.904;2022-10-20T08:26:28;14.47;;;10.73;;
46391;SDS011;32098;49.448;7.904;2022-10-20T08:28:54;14.83;;;10.30;;
46391;SDS011;32098;49.448;7.904;2022-10-20T08:31:21;13.97;;;10.10;;
46391;SDS011;32098;49.448;7.904;2022-10-20T08:33:48;15.23;;;10.10;;
46391;SDS011;32098;49.448;7.904;2022-10-20T08:36:18;13.93;;;10.33;;
46391;SDS011;32098;49.448;7.904;2022-10-20T08:38:47;15.03;;;11.10;;
46391;SDS011;32098;49.448;7.904;2022-10-20T08:41:18;16.73;;;10.65;;
46391;SDS011;32098;49.448;7.904;2022-10-20T08:44:00;14.63;;;11.00;;
46391;SDS011;32098;49.448;7.904;2022-10-20T08:46:30;16.17;;;11.32;;
46391;SDS011;32098;49.448;7.904;2022-10-20T08:48:59;15.23;;;10.77;;
46391;SDS011;32098;49.448;7.904;2022-10-20T08:51:35;14.23;;;10.97;;
46391;SDS011;32098;49.448;7.904;2022-10-20T08:54:04;18.50;;;11.93;;
46391;SDS011;32098;49.448;7.904;2022-10-20T08:56:37;13.97;;;10.57;;
46391;SDS011;32098;49.448;7.904;2022-10-20T08:59:15;16.90;;;10.83;;
46391;SDS011;32098;49.448;7.904;2022-10-20T09:01:50;15.53;;;10.77;;
46391;SDS011;32098;49.448;7.904;2022-10-20T09:04:18;14.93;;;10.23;;
46391;SDS011;32098;49.448;7.904;2022-10-20T09:06:49;16.20;;;10.70;;
46391;SDS011;32098;49.448;7.904;2022-10-20T09:09:20;14.57;;;10.77;;
46391;SDS011;32098;49.448;7.904;2022-10-20T09:11:49;15.47;;;10.50;;
46391;SDS011;32098;49.448;7.904;2022-10-20T09:14:18;15.73;;;10.83;;
46391;SDS011;32098;49.448;7.904;2022-10-20T09:16:46;12.98;;;9.80;;
46391;SDS011;32098;49.448;7.904;2022-10-20T09:19:25;14.60;;;9.63;;
46391;SDS011;32098;49.448;7.904;2022-10-20T09:21:53;16.60;;;10.70;;
46391;SDS011;32098;49.448;7.904;2022-10-20T09:24:23;16.87;;;11.03;;
46391;SDS011;32098;49.448;7.904;2022-10-20T09:26:52;15.77;;;10.30;;
46391;SDS011;32098;49.448;7.904;2022-10-20T09:29:34;14.57;;;10.77;;
46391;SDS011;32098;49.448;7.904;2022-10-20T09:32:09;15.43;;;9.67;;
46391;SDS011;32098;49.448;7.904;2022-10-20T09:35:46;15.50;;;10.80;;
46391;SDS011;32098;49.448;7.904;2022-10-20T09:43:28;12.17;;;9.13;;
46391;SDS011;32098;49.448;7.904;2022-10-20T09:45:55;13.10;;;9.20;;
46391;SDS011;32098;49.448;7.904;2022-10-20T09:50:58;11.43;;;9.03;;
46391;SDS011;32098;49.448;7.904;2022-10-20T09:53:27;14.60;;;9.53;;
46391;SDS011;32098;49.448;7.904;2022-10-20T09:55:57;11.60;;;8.60;;
46391;SDS011;32098;49.448;7.904;2022-10-20T09:58:28;12.40;;;8.20;;
46391;SDS011;32098;49.448;7.904;2022-10-20T10:00:59;12.03;;;7.80;;
46391;SDS011;32098;49.448;7.904;2022-10-20T10:03:29;12.43;;;8.40;;
46391;SDS011;32098;49.448;7.904;2022-10-20T10:06:18;10.10;;;8.00;;
46391;SDS011;32098;49.448;7.904;2022-10-20T10:08:45;9.90;;;7.73;;
46391;SDS011;32098;49.448;7.904;2022-10-20T10:11:16;12.82;;;7.50;;
46391;SDS011;32098;49.448;7.904;2022-10-20T10:13:46;9.68;;;7.53;;
46391;SDS011;32098;49.448;7.904;2022-10-20T10:16:16;10.73;;;7.40;;
46391;SDS011;32098;49.448;7.904;2022-10-20T10:18:52;9.87;;;7.27;;
46391;SDS011;32098;49.448;7.904;2022-10-20T10:21:22;11.53;;;7.03;;
46391;SDS011;32098;49.448;7.904;2022-10-20T10:23:53;8.30;;;7.35;;
46391;SDS011;32098;49.448;7.904;2022-10-20T10:29:17;9.88;;;7.45;;
46391;SDS011;32098;49.448;7.904;2022-10-20T10:31:56;12.57;;;7.22;;
46391;SDS011;32098;49.448;7.904;2022-10-20T10:34:42;10.77;;;7.25;;
46391;SDS011;32098;49.448;7.904;2022-10-20T10:37:20;12.67;;;7.13;;
46391;SDS011;32098;49.448;7.904;2022-10-20T10:39:47;10.75;;;6.60;;
46391;SDS011;32098;49.448;7.904;2022-10-20T10:56:14;8.30;;;6.95;;
46391;SDS011;32098;49.448;7.904;2022-10-20T10:58:46;11.32;;;6.80;;
46391;SDS011;32098;49.448;7.904;2022-10-20T11:07:35;10.20;;;6.97;;
46391;SDS011;32098;49.448;7.904;2022-10-20T11:10:20;9.38;;;6.78;;
46391;SDS011;32098;49.448;7.904;2022-10-20T11:13:05;11.18;;;6.78;;
46391;SDS011;32098;49.448;7.904;2022-10-20T11:27:06;9.68;;;6.60;;
46391;SDS011;32098;49.448;7.904;2022-10-20T11:29:46;7.30;;;6.15;;
46391;SDS011;32098;49.448;7.904;2022-10-20T11:32:38;10.60;;;6.43;;
46391;SDS011;32098;49.448;7.904;2022-10-20T11:35:25;9.65;;;6.57;;
46391;SDS011;32098;49.448;7.904;2022-10-20T11:38:17;9.45;;;6.03;;
46391;SDS011;32098;49.448;7.904;2022-10-20T11:41:06;10.95;;;6.72;;
46391;SDS011;32098;49.448;7.904;2022-10-20T11:43:42;10.02;;;6.32;;
46391;SDS011;32098;49.448;7.904;2022-10-20T11:46:35;9.50;;;5.95;;
46391;SDS011;32098;49.448;7.904;2022-10-20T11:49:07;9.85;;;6.78;;
46391;SDS011;32098;49.448;7.904;2022-10-20T11:54:39;10.02;;;6.55;;
46391;SDS011;32098;49.448;7.904;2022-10-20T12:05:54;9.38;;;6.22;;
46391;SDS011;32098;49.448;7.904;2022-10-20T12:08:28;8.15;;;6.28;;
46391;SDS011;32098;49.448;7.904;2022-10-20T12:19:20;8.02;;;7.03;;
46391;SDS011;32098;49.448;7.904;2022-10-20T12:22:36;11.73;;;6.05;;
46391;SDS011;32098;49.448;7.904;2022-10-20T12:27:26;9.35;;;6.45;;
46391;SDS011;32098;49.448;7.904;2022-10-20T12:29:55;8.13;;;6.38;;
46391;SDS011;32098;49.448;7.904;2022-10-20T12:32:24;7.10;;;5.38;;
46391;SDS011;32098;49.448;7.904;2022-10-20T12:37:36;10.55;;;5.68;;
46391;SDS011;32098;49.448;7.904;2022-10-20T12:42:37;8.27;;;6.15;;
46391;SDS011;32098;49.448;7.904;2022-10-20T12:47:47;9.40;;;5.93;;
46391;SDS011;32098;49.448;7.904;2022-10-20T12:50:20;6.72;;;6.03;;
46391;SDS011;32098;49.448;7.904;2022-10-20T12:52:50;9.75;;;5.97;;
46391;SDS011;32098;49.448;7.904;2022-10-20T12:55:18;8.02;;;5.78;;
46391;SDS011;32098;49.448;7.904;2022-10-20T12:57:50;9.75;;;6.80;;
46391;SDS011;32098;49.448;7.904;2022-10-20T13:03:02;8.80;;;6.22;;
46391;SDS011;32098;49.448;7.904;2022-10-20T13:11:32;8.05;;;6.55;;
46391;SDS011;32098;49.448;7.904;2022-10-20T13:16:39;8.82;;;6.22;;
46391;SDS011;32098;49.448;7.904;2022-10-20T13:19:29;10.07;;;6.68;;
46391;SDS011;32098;49.448;7.904;2022-10-20T13:24:57;9.60;;;7.10;;
46391;SDS011;32098;49.448;7.904;2022-10-20T13:27:25;13.35;;;7.63;;
46391;SDS011;32098;49.448;7.904;2022-10-20T13:29:55;10.30;;;6.95;;
46391;SDS011;32098;49.448;7.904;2022-10-20T13:32:39;10.18;;;7.13;;
46391;SDS011;32098;49.448;7.904;2022-10-20T13:35:35;10.00;;;6.78;;
46391;SDS011;32098;49.448;7.904;2022-10-20T13:38:19;8.80;;;6.18;;
46391;SDS011;32098;49.448;7.904;2022-10-20T13:41:02;9.65;;;6.90;;
46391;SDS011;32098;49.448;7.904;2022-10-20T13:43:41;7.93;;;6.80;;
46391;SDS011;32098;49.448;7.904;2022-10-20T13:46:33;12.65;;;6.68;;
46391;SDS011;32098;49.448;7.904;2022-10-20T13:51:43;9.43;;;7.20;;
46391;SDS011;32098;49.448;7.904;2022-10-20T13:54:17;11.43;;;6.78;;
46391;SDS011;32098;49.448;7.904;2022-10-20T13:56:57;8.18;;;6.47;;
46391;SDS011;32098;49.448;7.904;2022-10-20T13:59:25;7.85;;;6.70;;
46391;SDS011;32098;49.448;7.904;2022-10-20T14:01:54;10.98;;;7.07;;
46391;SDS011;32098;49.448;7.904;2022-10-20T14:06:51;11.40;;;8.00;;
46391;SDS011;32098;49.448;7.904;2022-10-20T14:09:20;9.15;;;7.07;;
46391;SDS011;32098;49.448;7.904;2022-10-20T14:12:01;10.15;;;7.28;;
46391;SDS011;32098;49.448;7.904;2022-10-20T14:14:31;9.95;;;7.53;;
46391;SDS011;32098;49.448;7.904;2022-10-20T14:17:02;10.85;;;7.57;;
46391;SDS011;32098;49.448;7.904;2022-10-20T14:19:30;10.87;;;7.50;;
46391;SDS011;32098;49.448;7.904;2022-10-20T14:22:09;12.98;;;7.90;;
46391;SDS011;32098;49.448;7.904;2022-10-20T14:24:39;10.15;;;7.00;;
46391;SDS011;32098;49.448;7.904;2022-10-20T14:27:12;11.50;;;7.60;;
46391;SDS011;32098;49.448;7.904;2022-10-20T14:29:42;11.73;;;8.10;;
46391;SDS011;32098;49.448;7.904;2022-10-20T14:32:14;13.02;;;7.75;;
46391;SDS011;32098;49.448;7.904;2022-10-20T14:37:40;12.10;;;8.43;;
46391;SDS011;32098;49.448;7.904;2022-10-20T14:40:21;10.13;;;8.40;;
46391;SDS011;32098;49.448;7.904;2022-10-20T14:42:50;11.07;;;7.90;;
46391;SDS011;32098;49.448;7.904;2022-10-20T14:47:46;15.97;;;8.47;;
46391;SDS011;32098;49.448;7.904;2022-10-20T14:52:56;11.30;;;8.53;;
46391;SDS011;32098;49.448;7.904;2022-10-20T14:55:42;11.37;;;8.07;;
46391;SDS011;32098;49.448;7.904;2022-10-20T14:58:29;15.93;;;8.83;;
46391;SDS011;32098;49.448;7.904;2022-10-20T15:01:16;11.73;;;8.88;;
46391;SDS011;32098;49.448;7.904;2022-10-20T15:06:42;11.40;;;8.50;;
46391;SDS011;32098;49.448;7.904;2022-10-20T15:09:19;14.33;;;8.90;;
46391;SDS011;32098;49.448;7.904;2022-10-20T15:11:53;12.05;;;7.82;;
46391;SDS011;32098;49.448;7.904;2022-10-20T15:14:19;13.27;;;8.07;;
46391;SDS011;32098;49.448;7.904;2022-10-20T15:16:47;12.80;;;8.82;;
46391;SDS011;32098;49.448;7.904;2022-10-20T15:19:27;16.30;;;8.80;;
46391;SDS011;32098;49.448;7.904;2022-10-20T15:21:58;13.02;;;9.20;;
46391;SDS011;32098;49.448;7.904;2022-10-20T15:24:27;15.45;;;9.00;;
46391;SDS011;32098;49.448;7.904;2022-10-20T15:26:54;13.07;;;9.07;;
46391;SDS011;32098;49.448;7.904;2022-10-20T15:29:21;12.85;;;8.82;;
46391;SDS011;32098;49.448;7.904;2022-10-20T15:31:49;9.68;;;8.55;;
46391;SDS011;32098;49.448;7.904;2022-10-20T15:34:18;15.90;;;8.45;;
46391;SDS011;32098;49.448;7.904;2022-10-20T15:36:45;12.80;;;8.82;;
46391;SDS011;32098;49.448;7.904;2022-10-20T15:39:16;12.30;;;8.40;;
46391;SDS011;32098;49.448;7.904;2022-10-20T15:41:43;13.93;;;8.27;;
46391;SDS011;32098;49.448;7.904;2022-10-20T15:44:12;13.85;;;9.10;;
46391;SDS011;32098;49.448;7.904;2022-10-20T15:46:44;16.02;;;8.73;;
46391;SDS011;32098;49.448;7.904;2022-10-20T15:49:11;14.63;;;9.30;;
46391;SDS011;32098;49.448;7.904;2022-10-20T15:51:39;16.00;;;10.07;;
46391;SDS011;32098;49.448;7.904;2022-10-20T15:54:10;12.97;;;9.93;;
46391;SDS011;32098;49.448;7.904;2022-10-20T15:56:39;14.27;;;10.25;;
46391;SDS011;32098;49.448;7.904;2022-10-20T15:59:06;16.13;;;10.33;;
46391;SDS011;32098;49.448;7.904;2022-10-20T16:01:33;11.35;;;9.52;;
46391;SDS011;32098;49.448;7.904;2022-10-20T16:04:00;14.73;;;9.93;;
46391;SDS011;32098;49.448;7.904;2022-10-20T16:06:28;11.90;;;9.57;;
46391;SDS011;32098;49.448;7.904;2022-10-20T16:08:54;15.80;;;9.57;;
46391;SDS011;32098;49.448;7.904;2022-10-20T16:11:23;13.20;;;10.48;;
46391;SDS011;32098;49.448;7.904;2022-10-20T16:13:50;16.88;;;10.00;;
46391;SDS011;32098;49.448;7.904;2022-10-20T16:16:17;18.07;;;10.70;;
46391;SDS011;32098;49.448;7.904;2022-10-20T16:18:47;14.40;;;9.73;;
46391;SDS011;32098;49.448;7.904;2022-10-20T16:21:15;14.33;;;10.40;;
46391;SDS011;32098;49.448;7.904;2022-10-20T16:23:42;19.70;;;10.93;;
46391;SDS011;32098;49.448;7.904;2022-10-20T16:26:11;14.37;;;10.60;;
46391;SDS011;32098;49.448;7.904;2022-10-20T16:28:38;14.07;;;10.33;;
46391;SDS011;32098;49.448;7.904;2022-10-20T16:31:07;17.73;;;11.30;;
46391;SDS011;32098;49.448;7.904;2022-10-20T16:33:36;47.03;;;24.60;;
46391;SDS011;32098;49.448;7.904;2022-10-20T16:36:04;56.00;;;34.00;;
46391;SDS011;32098;49.448;7.904;2022-10-20T16:38:33;26.20;;;17.85;;
46391;SDS011;32098;49.448;7.904;2022-10-20T16:41:07;22.73;;;15.87;;
46391;SDS011;32098;49.448;7.904;2022-10-20T16:43:36;16.77;;;10.50;;
46391;SDS011;32098;49.448;7.904;2022-10-20T16:46:04;17.55;;;10.63;;
46391;SDS011;32098;49.448;7.904;2022-10-20T16:48:34;17.35;;;10.20;;
46391;SDS011;32098;49.448;7.904;2022-10-20T16:51:04;17.40;;;11.00;;
46391;SDS011;32098;49.448;7.904;2022-10-20T16:53:31;17.67;;;11.32;;
46391;SDS011;32098;49.448;7.904;2022-10-20T16:55:58;18.00;;;11.53;;
46391;SDS011;32098;49.448;7.904;2022-10-20T16:58:25;14.10;;;10.10;;
46391;SDS011;32098;49.448;7.904;2022-10-20T17:00:58;15.38;;;10.45;;
46391;SDS011;32098;49.448;7.904;2022-10-20T17:03:29;16.10;;;10.93;;
46391;SDS011;32098;49.448;7.904;2022-10-20T17:06:01;19.20;;;12.20;;
46391;SDS011;32098;49.448;7.904;2022-10-20T17:09:20;17.13;;;11.23;;